createdAt,value
2023-01-23T00:04:35.751Z,22.20
2023-01-23T00:09:44.199Z,24.00
2023-01-23T00:14:51.679Z,30.10
2023-01-23T00:19:59.917Z,25.70
2023-01-23T00:25:08.541Z,23.70
2023-01-23T00:30:17.735Z,23.50
2023-01-23T00:35:25.903Z,25.00
2023-01-23T00:40:33.512Z,24.50
2023-01-23T00:45:41.652Z,23.80
2023-01-23T00:50:49.341Z,22.20
2023-01-23T00:55:57.832Z,23.70
2023-01-23T01:01:07.724Z,24.20
2023-01-23T01:06:15.971Z,22.20
2023-01-23T01:11:23.520Z,22.00
2023-01-23T01:16:31.582Z,21.00
2023-01-23T01:21:39.250Z,23.30
2023-01-23T01:26:47.129Z,22.10
2023-01-23T01:31:54.742Z,21.80
2023-01-23T01:37:03.159Z,24.50
2023-01-23T01:42:11.607Z,21.10
2023-01-23T01:47:19.749Z,21.80
2023-01-23T01:52:29.105Z,19.40
2023-01-23T01:57:42.371Z,18.90
2023-01-23T02:02:53.714Z,19.30
2023-01-23T02:08:05.146Z,21.00
2023-01-23T02:13:36.380Z,21.00
2023-01-23T02:18:48.380Z,21.00
2023-01-23T02:24:07.322Z,19.70
2023-01-23T02:29:16.103Z,21.20
2023-01-23T02:34:26.256Z,19.50
2023-01-23T02:39:33.928Z,19.50
2023-01-23T02:44:41.554Z,19.40
2023-01-23T02:49:48.743Z,13.70
2023-01-23T03:00:17.427Z,16.80
2023-01-23T03:05:24.763Z,14.40
2023-01-23T03:15:39.465Z,15.00
2023-01-23T03:20:47.653Z,12.30
2023-01-23T03:25:58.825Z,12.80
2023-01-23T03:31:06.562Z,14.40
2023-01-23T03:36:16.202Z,14.60
2023-01-23T03:41:27.640Z,13.60
2023-01-23T03:51:41.588Z,12.70
2023-01-23T03:56:48.812Z,13.80
2023-01-23T04:07:02.881Z,13.20
2023-01-23T04:12:10.998Z,14.00
2023-01-23T04:17:19.233Z,11.60
2023-01-23T04:22:26.661Z,11.80
2023-01-23T04:27:34.241Z,13.30
2023-01-23T04:32:41.652Z,12.00
2023-01-23T04:37:49.380Z,13.60
2023-01-23T04:42:56.996Z,12.10
2023-01-23T04:48:04.604Z,10.80
2023-01-23T04:53:14.357Z,13.20
2023-01-23T04:58:22.774Z,11.40
2023-01-23T05:03:30.375Z,12.40
2023-01-23T05:08:37.820Z,13.30
2023-01-23T05:13:45.827Z,12.60
2023-01-23T05:18:53.939Z,12.60
2023-01-23T05:24:01.435Z,11.40
2023-01-23T05:29:08.869Z,12.00
2023-01-23T05:34:16.411Z,11.70
2023-01-23T05:39:24.250Z,11.00
2023-01-23T05:44:32.280Z,11.70
2023-01-23T05:49:39.583Z,13.00
2023-01-23T05:54:47.450Z,12.30
2023-01-23T05:59:55.865Z,11.80
2023-01-23T06:05:03.530Z,12.10
2023-01-23T06:10:13.086Z,12.80
2023-01-23T06:15:20.450Z,12.20
2023-01-23T06:20:28.271Z,14.10
2023-01-23T06:25:36.015Z,12.90
2023-01-23T06:30:44.015Z,12.90
2023-01-23T06:46:58.886Z,12.10
2023-01-23T06:52:06.606Z,12.50
2023-01-23T06:57:14.423Z,28.40
2023-01-23T07:02:22.320Z,13.50
2023-01-23T07:07:30.195Z,10.30
2023-01-23T07:12:37.788Z,14.30
2023-01-23T07:17:46.666Z,14.70
2023-01-23T07:22:54.802Z,13.40
2023-01-23T07:28:02.393Z,13.70
2023-01-23T07:33:09.999Z,17.60
2023-01-23T07:38:18.161Z,12.90
2023-01-23T07:43:26.371Z,13.40
2023-01-23T07:48:33.804Z,13.50
2023-01-23T07:53:41.465Z,14.50
2023-01-23T07:58:52.553Z,15.20
2023-01-23T08:04:00.214Z,12.60
2023-01-23T08:09:09.091Z,15.80
2023-01-23T08:14:16.619Z,12.80
2023-01-23T08:19:26.306Z,12.90
2023-01-23T08:24:33.923Z,13.40
2023-01-23T08:29:41.748Z,13.90
2023-01-23T08:34:49.245Z,13.80
2023-01-23T08:39:56.869Z,12.70
2023-01-23T08:45:05.204Z,12.70
2023-01-23T08:50:14.650Z,13.60
2023-01-23T08:55:22.557Z,13.10
2023-01-23T09:00:31.342Z,13.80
2023-01-23T09:05:39.459Z,14.60
2023-01-23T09:10:48.140Z,13.60
2023-01-23T09:15:55.854Z,15.60
2023-01-23T09:21:08.765Z,11.50
2023-01-23T09:26:19.772Z,11.60
2023-01-23T09:31:28.077Z,12.90
2023-01-23T09:36:42.834Z,9.70
2023-01-23T09:41:51.915Z,11.80
2023-01-23T09:47:05.655Z,11.60
2023-01-23T09:52:17.331Z,13.60
2023-01-23T09:57:31.352Z,14.80
2023-01-23T10:02:39.202Z,13.10
2023-01-23T10:07:59.696Z,12.20
2023-01-23T10:13:16.688Z,13.60
2023-01-23T10:18:30.533Z,12.00
2023-01-23T10:24:03.559Z,13.90
2023-01-23T10:29:31.422Z,12.80
2023-01-23T10:34:48.888Z,14.20
2023-01-23T10:45:05.448Z,14.40
2023-01-23T10:50:15.055Z,14.70
2023-01-23T10:55:33.514Z,15.70
2023-01-23T11:00:47.021Z,15.20
2023-01-23T11:05:57.083Z,18.10
2023-01-23T11:11:25.977Z,17.30
2023-01-23T11:16:35.206Z,15.00
2023-01-23T11:21:59.502Z,14.30
2023-01-23T11:27:17.558Z,12.50
2023-01-23T11:32:26.316Z,17.20
2023-01-23T11:37:38.210Z,10.30
2023-01-23T11:42:47.262Z,15.50
2023-01-23T11:48:08.803Z,15.30
2023-01-23T11:53:36.800Z,15.20
2023-01-23T11:59:25.326Z,14.40
2023-01-23T12:05:09.613Z,14.00
2023-01-23T12:10:25.141Z,14.90
2023-01-23T12:15:44.632Z,17.20
2023-01-23T12:21:01.629Z,14.90
2023-01-23T12:26:19.791Z,15.60
2023-01-23T12:31:46.714Z,17.00
2023-01-23T12:37:19.458Z,16.80
2023-01-23T12:42:41.698Z,17.60
2023-01-23T12:48:04.716Z,17.30
2023-01-23T12:53:15.453Z,15.10
2023-01-23T12:58:25.129Z,13.90
2023-01-23T13:03:46.575Z,11.10
2023-01-23T13:09:16.700Z,12.50
2023-01-23T13:15:03.636Z,14.30
2023-01-23T13:20:48.249Z,16.30
2023-01-23T13:26:29.451Z,14.30
2023-01-23T13:31:45.618Z,16.90
2023-01-23T13:36:55.554Z,18.10
2023-01-23T13:42:45.050Z,16.00
2023-01-23T14:21:41.039Z,18.40
2023-01-23T14:26:53.531Z,19.70
2023-01-23T14:32:01.509Z,17.60
2023-01-23T14:37:13.550Z,18.60
2023-01-23T14:52:22.673Z,18.00
2023-01-23T14:57:31.297Z,17.40
2023-01-23T15:02:39.602Z,19.80
2023-01-23T15:07:50.298Z,18.80
2023-01-23T15:13:02.370Z,17.60
2023-01-23T15:18:23.939Z,19.50
2023-01-23T15:23:34.249Z,19.00
2023-01-23T15:28:51.872Z,19.20
2023-01-23T15:34:13.391Z,22.60
2023-01-23T15:39:24.427Z,18.00
2023-01-23T15:44:34.044Z,21.60
2023-01-23T15:49:43.340Z,20.40
2023-01-23T15:54:52.131Z,20.60
2023-01-23T16:00:00.575Z,20.10
2023-01-23T16:05:10.230Z,18.70
2023-01-23T16:10:23.481Z,20.40
2023-01-23T16:15:33.007Z,19.80
2023-01-23T16:20:44.202Z,19.70
2023-01-23T16:25:52.904Z,22.90
2023-01-23T16:31:01.251Z,20.20
2023-01-23T16:36:14.215Z,20.70
2023-01-23T16:41:22.553Z,20.50
2023-01-23T16:46:30.309Z,17.30
2023-01-23T16:51:39.120Z,17.80
2023-01-23T16:56:51.188Z,20.00
2023-01-23T17:01:59.898Z,21.90
2023-01-23T17:07:11.553Z,14.30
2023-01-23T17:12:21.908Z,19.80
2023-01-23T17:17:33.460Z,18.20
2023-01-23T17:22:43.896Z,18.60
2023-01-23T17:28:10.865Z,21.10
2023-01-23T17:33:22.871Z,19.60
2023-01-23T17:38:34.719Z,15.50
2023-01-23T17:43:44.523Z,17.50
2023-01-23T17:48:52.073Z,14.80
2023-01-23T17:53:59.433Z,17.70
2023-01-23T17:59:07.254Z,16.40
2023-01-23T18:04:19.521Z,19.50
2023-01-23T18:09:26.992Z,19.70
2023-01-23T18:14:47.604Z,18.00
2023-01-23T18:19:56.447Z,18.50
2023-01-23T18:25:05.291Z,20.30
2023-01-23T18:30:44.737Z,18.30
2023-01-23T18:36:20.791Z,21.70
2023-01-23T18:41:30.382Z,21.50
2023-01-23T18:46:38.624Z,21.90
2023-01-23T18:51:55.610Z,22.30
2023-01-23T18:57:18.070Z,20.30
2023-01-23T19:02:34.046Z,19.10
2023-01-23T19:07:42.557Z,19.70
2023-01-23T19:12:56.933Z,24.10
2023-01-23T19:18:13.889Z,20.20
2023-01-23T19:23:38.909Z,19.90
2023-01-23T19:28:47.349Z,21.70
2023-01-23T19:33:55.975Z,24.70
2023-01-23T19:39:04.657Z,24.40
2023-01-23T19:44:15.409Z,24.20
2023-01-23T19:49:25.405Z,24.40
2023-01-23T19:54:34.390Z,19.90
2023-01-23T19:59:41.719Z,20.80
2023-01-23T20:04:49.413Z,24.90
2023-01-23T20:09:57.870Z,21.70
2023-01-23T20:21:03.552Z,13.50
2023-01-23T20:26:11.887Z,22.00
2023-01-23T20:31:19.834Z,21.10
2023-01-23T20:36:27.668Z,21.60
2023-01-23T20:41:35.019Z,20.20
2023-01-23T20:46:44.659Z,19.70
2023-01-23T20:51:52.440Z,21.80
2023-01-23T20:57:00.909Z,21.30
2023-01-23T21:02:24.028Z,24.70
2023-01-23T21:07:33.192Z,20.10
2023-01-23T21:12:41.544Z,20.00
2023-01-23T21:19:49.507Z,23.60
2023-01-23T21:24:57.044Z,23.90
2023-01-23T21:30:04.641Z,23.80
2023-01-23T21:35:12.597Z,21.40
2023-01-23T21:40:20.629Z,19.80
2023-01-23T21:45:27.932Z,25.90
2023-01-23T21:50:35.349Z,23.80
2023-01-23T21:55:42.840Z,22.20
2023-01-23T22:01:16.733Z,20.60
2023-01-23T22:06:25.106Z,16.40
2023-01-23T22:11:33.441Z,21.30
2023-01-23T22:16:48.465Z,20.50
2023-01-23T22:21:57.937Z,22.10
2023-01-23T22:27:06.291Z,21.50
2023-01-23T22:32:14.239Z,21.60
2023-01-23T22:37:22.225Z,25.00
2023-01-23T22:42:30.031Z,23.60
2023-01-23T22:47:37.833Z,25.50
2023-01-23T22:52:46.450Z,24.30
2023-01-23T22:57:55.912Z,23.20
2023-01-23T23:03:03.129Z,21.30
2023-01-23T23:13:16.069Z,22.60
2023-01-23T23:23:30.199Z,23.30
2023-01-23T23:28:39.879Z,16.50
2023-01-23T23:33:47.865Z,22.70
2023-01-23T23:38:55.484Z,21.30
2023-01-23T23:44:03.151Z,20.80
2023-01-23T23:49:10.903Z,21.60
2023-01-23T23:54:19.321Z,22.20
2023-01-23T23:59:26.799Z,16.90
